Simpelveld, Netherlands
Current Conditions -  °F | °C
As of 2:50 PM on Friday 19 Dec 2014 (Local Time) from ETNG Reporting Station
Light Rain Light Rain  
Wind Chill: 42°   Ceiling: 2600
Heat Index: 48°   Visibility: 6mi
Dew Point: 45°   Wind: 16mph
Humidity: 87%   Direction: 290°WNW
Pressure: 29.91"   Gusts: NA
Location:  50.83°N, 5.98°E
Report Text: ETNG 191350Z 29014KT 9999 -RA FEW010 BKN026 BKN080 09/07 Q1013 RERA BECMG NSW
Loading
Personal Weather Stations






























Interactive Weather Map New forecast layout! Learn more

10-Day Weather Forecast

Advertisements
Track Severe Weather on mobile